createdAt,value
2023-04-29T00:03:41.642Z,99.14
2023-04-29T00:08:43.467Z,98.60
2023-04-29T00:13:45.130Z,98.90
2023-04-29T00:18:46.864Z,98.62
2023-04-29T00:23:48.547Z,99.38
2023-04-29T00:28:50.336Z,99.25
2023-04-29T00:33:52.065Z,98.80
2023-04-29T00:38:53.879Z,98.93
2023-04-29T00:43:55.890Z,98.78
2023-04-29T00:49:01.380Z,98.50
2023-04-29T00:54:08.819Z,98.33
2023-04-29T00:59:12.596Z,98.56
2023-04-29T01:04:15.453Z,97.73
2023-04-29T01:09:35.706Z,96.72
2023-04-29T01:14:39.649Z,97.37
2023-04-29T01:19:51.572Z,97.71
2023-04-29T01:24:56.106Z,97.68
2023-04-29T01:30:16.716Z,98.38
2023-04-29T01:36:09.293Z,98.54
2023-04-29T01:41:15.141Z,98.21
2023-04-29T01:46:19.790Z,98.59
2023-04-29T01:51:22.416Z,98.70
2023-04-29T01:56:24.758Z,99.30
2023-04-29T02:01:41.095Z,99.31
2023-04-29T02:06:43.178Z,99.10
2023-04-29T02:11:47.527Z,99.31
2023-04-29T02:16:49.449Z,99.31
2023-04-29T02:21:51.688Z,99.42
2023-04-29T02:26:53.593Z,99.52
2023-04-29T02:31:55.739Z,99.83
2023-04-29T02:36:57.794Z,100.00
2023-04-29T02:41:59.820Z,100.00
2023-04-29T02:47:01.926Z,100.00
2023-04-29T02:52:04.838Z,100.00
2023-04-29T02:57:08.147Z,100.00
2023-04-29T03:02:09.861Z,100.00
2023-04-29T03:07:11.934Z,100.00
2023-04-29T03:12:14.042Z,100.00
2023-04-29T03:17:15.892Z,100.00
2023-04-29T03:22:19.716Z,100.00
2023-04-29T03:27:23.362Z,100.00
2023-04-29T03:32:25.257Z,100.00
2023-04-29T03:37:27.612Z,100.00
2023-04-29T03:42:37.845Z,100.00
2023-04-29T03:47:40.404Z,100.00
2023-04-29T03:52:42.180Z,100.00
2023-04-29T03:57:50.590Z,100.00
2023-04-29T04:02:53.733Z,100.00
2023-04-29T04:07:55.927Z,100.00
2023-04-29T04:13:16.258Z,100.00
2023-04-29T04:18:18.904Z,100.00
2023-04-29T04:23:20.678Z,100.00
2023-04-29T04:28:22.394Z,100.00
2023-04-29T04:33:34.474Z,100.00
2023-04-29T04:38:36.744Z,100.00
2023-04-29T04:43:42.832Z,100.00
2023-04-29T04:48:52.466Z,100.00
2023-04-29T04:53:55.194Z,100.00
2023-04-29T04:58:59.066Z,100.00
2023-04-29T05:04:02.604Z,100.00
2023-04-29T05:09:06.372Z,100.00
2023-04-29T05:14:09.522Z,100.00
2023-04-29T05:19:11.362Z,100.00
2023-04-29T05:24:15.550Z,100.00
2023-04-29T05:29:17.638Z,100.00
2023-04-29T05:34:25.876Z,100.00
2023-04-29T05:39:28.120Z,100.00
2023-04-29T05:44:40.525Z,100.00
2023-04-29T05:49:42.100Z,100.00
2023-04-29T05:54:44.204Z,100.00
2023-04-29T05:59:46.110Z,100.00
2023-04-29T06:04:48.672Z,100.00
2023-04-29T06:10:05.743Z,100.00
2023-04-29T06:15:08.044Z,100.00
2023-04-29T06:20:10.703Z,100.00
2023-04-29T06:25:14.287Z,100.00
2023-04-29T06:30:23.712Z,100.00
2023-04-29T06:35:25.919Z,100.00
2023-04-29T06:40:40.953Z,100.00
2023-04-29T06:46:05.625Z,100.00
2023-04-29T06:51:13.634Z,100.00
2023-04-29T06:56:16.950Z,100.00
2023-04-29T07:01:19.077Z,100.00
2023-04-29T07:06:20.872Z,100.00
2023-04-29T07:11:24.745Z,100.00
2023-04-29T07:16:28.179Z,100.00
2023-04-29T07:21:30.717Z,100.00
2023-04-29T07:26:32.563Z,100.00
2023-04-29T07:31:36.022Z,100.00
2023-04-29T07:36:39.884Z,100.00
2023-04-29T07:41:42.116Z,100.00
2023-04-29T07:46:44.758Z,100.00
2023-04-29T07:51:46.730Z,100.00
2023-04-29T07:56:48.600Z,100.00
2023-04-29T08:01:50.838Z,100.00
2023-04-29T08:06:52.726Z,100.00
2023-04-29T08:11:54.366Z,100.00
2023-04-29T08:16:56.382Z,100.00
2023-04-29T08:21:58.311Z,98.75
2023-04-29T08:26:59.991Z,95.66
2023-04-29T08:32:01.822Z,96.96
2023-04-29T08:37:03.660Z,90.23
2023-04-29T08:42:09.583Z,87.10
2023-04-29T08:47:11.796Z,85.69
2023-04-29T08:52:14.628Z,85.53
2023-04-29T08:57:16.662Z,83.58
2023-04-29T09:02:21.470Z,84.09
2023-04-29T09:07:24.214Z,83.52
2023-04-29T09:12:26.820Z,80.74
2023-04-29T09:17:54.785Z,77.23
2023-04-29T09:23:03.607Z,77.97
2023-04-29T09:28:16.878Z,71.86
2023-04-29T09:33:18.585Z,72.02
2023-04-29T09:38:21.047Z,74.61
2023-04-29T09:43:23.833Z,72.01
2023-04-29T09:48:33.673Z,69.67
2023-04-29T09:53:38.213Z,67.64
2023-04-29T09:58:40.740Z,70.38
2023-04-29T10:03:43.725Z,66.65
2023-04-29T10:08:46.606Z,69.08
2023-04-29T10:13:50.268Z,66.17
2023-04-29T10:18:55.750Z,68.05
2023-04-29T10:23:59.088Z,65.43
2023-04-29T10:29:01.917Z,68.40
2023-04-29T10:34:03.524Z,69.64
2023-04-29T10:39:12.689Z,70.90
2023-04-29T10:44:14.484Z,70.20
2023-04-29T10:49:16.448Z,70.09
2023-04-29T10:54:20.960Z,67.37
2023-04-29T10:59:42.605Z,68.57
2023-04-29T11:05:07.753Z,69.14
2023-04-29T11:10:09.628Z,68.59
2023-04-29T11:15:18.151Z,69.64
2023-04-29T11:20:20.145Z,65.06
2023-04-29T11:25:25.885Z,70.41
2023-04-29T11:30:28.683Z,71.18
2023-04-29T11:35:31.134Z,68.63
2023-04-29T11:40:33.233Z,70.73
2023-04-29T11:45:36.083Z,69.87
2023-04-29T11:50:37.743Z,71.37
2023-04-29T11:55:42.452Z,70.79
2023-04-29T12:00:45.136Z,70.29
2023-04-29T12:05:52.996Z,67.74
2023-04-29T12:10:56.880Z,69.47
2023-04-29T12:15:59.213Z,68.88
2023-04-29T12:21:01.272Z,68.89
2023-04-29T12:26:03.845Z,67.17
2023-04-29T12:31:05.579Z,67.04
2023-04-29T12:36:18.218Z,64.26
2023-04-29T12:41:21.156Z,66.24
2023-04-29T12:46:23.308Z,66.66
2023-04-29T12:51:25.204Z,67.42
2023-04-29T12:56:26.966Z,64.12
2023-04-29T13:01:28.692Z,63.54
2023-04-29T13:06:31.907Z,62.91
2023-04-29T13:11:34.871Z,63.89
2023-04-29T13:16:36.975Z,66.39
2023-04-29T13:21:39.081Z,64.48
2023-04-29T13:26:41.300Z,62.13
2023-04-29T13:31:44.103Z,61.98
2023-04-29T13:36:46.225Z,63.72
2023-04-29T13:41:47.967Z,63.87
2023-04-29T13:46:52.089Z,63.99
2023-04-29T13:52:38.618Z,65.46
2023-04-29T13:57:58.899Z,65.93
2023-04-29T14:02:39.099Z,67.10
2023-04-29T14:07:41.059Z,66.86
2023-04-29T14:12:43.452Z,66.50
2023-04-29T14:17:45.242Z,67.65
2023-04-29T14:22:47.436Z,64.67
2023-04-29T14:27:49.274Z,63.37
2023-04-29T14:32:52.162Z,63.56
2023-04-29T14:37:54.441Z,63.47
2023-04-29T14:42:56.330Z,64.03
2023-04-29T14:47:58.083Z,62.88
2023-04-29T14:53:01.328Z,63.71
2023-04-29T14:58:05.062Z,64.12
2023-04-29T15:03:07.147Z,63.35
2023-04-29T15:08:09.549Z,64.98
2023-04-29T15:13:11.339Z,65.07
2023-04-29T15:18:12.992Z,66.12
2023-04-29T15:23:14.730Z,65.76
2023-04-29T15:28:16.791Z,66.00
2023-04-29T15:33:19.035Z,64.66
2023-04-29T15:38:20.786Z,64.91
2023-04-29T15:43:23.427Z,65.86
2023-04-29T15:48:26.472Z,66.28
2023-04-29T15:53:28.436Z,66.72
2023-04-29T15:58:30.689Z,67.84
2023-04-29T16:03:32.426Z,68.01
2023-04-29T16:08:34.087Z,67.99
2023-04-29T16:13:36.625Z,68.50
2023-04-29T16:18:39.642Z,68.11
2023-04-29T16:23:41.310Z,67.74
2023-04-29T16:28:43.374Z,68.32
2023-04-29T16:33:45.663Z,68.00
2023-04-29T16:38:47.794Z,67.07
2023-04-29T16:43:49.921Z,65.86
2023-04-29T16:48:56.545Z,66.52
2023-04-29T16:53:58.226Z,66.76
2023-04-29T16:59:00.252Z,66.77
2023-04-29T17:04:02.102Z,67.07
2023-04-29T17:09:04.184Z,67.59
2023-04-29T17:14:06.097Z,67.00
2023-04-29T17:19:08.171Z,67.07
2023-04-29T17:24:09.877Z,67.82
2023-04-29T17:29:12.531Z,67.53
2023-04-29T17:34:25.309Z,67.67
2023-04-29T17:39:27.090Z,67.20
2023-04-29T17:44:28.990Z,67.16
2023-04-29T17:49:31.642Z,67.89
2023-04-29T17:54:33.468Z,68.00
2023-04-29T17:59:35.581Z,68.12
2023-04-29T18:04:37.675Z,68.01
2023-04-29T18:09:39.637Z,68.42
2023-04-29T18:14:42.289Z,68.93
2023-04-29T18:19:46.649Z,68.87
2023-04-29T18:24:49.340Z,68.98
2023-04-29T18:29:51.307Z,69.08
2023-04-29T18:34:53.086Z,69.48
2023-04-29T18:39:55.290Z,69.76
2023-04-29T18:44:57.129Z,70.41
2023-04-29T18:49:59.150Z,70.19
2023-04-29T18:55:01.031Z,70.46
2023-04-29T19:00:03.856Z,70.45
2023-04-29T19:05:09.153Z,70.34
2023-04-29T19:10:11.227Z,70.30
2023-04-29T19:15:13.324Z,69.83
2023-04-29T19:20:15.353Z,70.11
2023-04-29T19:25:17.381Z,70.27
2023-04-29T19:30:19.684Z,70.40
2023-04-29T19:35:21.787Z,70.56
2023-04-29T19:40:23.632Z,71.10
2023-04-29T19:45:26.729Z,71.42
2023-04-29T19:50:29.241Z,71.88
2023-04-29T19:55:31.198Z,71.60
2023-04-29T20:00:33.477Z,71.36
2023-04-29T20:05:35.192Z,72.13
2023-04-29T20:10:36.914Z,72.66
2023-04-29T20:15:38.630Z,72.63
2023-04-29T20:20:40.329Z,73.35
2023-04-29T20:25:42.488Z,74.05
2023-04-29T20:30:44.336Z,74.17
2023-04-29T20:35:46.503Z,73.90
2023-04-29T20:40:48.743Z,73.92
2023-04-29T20:45:50.698Z,74.33
2023-04-29T20:50:52.457Z,74.35
2023-04-29T20:55:54.135Z,74.91
2023-04-29T21:00:56.391Z,75.58
2023-04-29T21:05:58.218Z,76.13
2023-04-29T21:10:59.918Z,76.68
2023-04-29T21:16:02.247Z,77.46
2023-04-29T21:21:04.091Z,78.00
2023-04-29T21:26:05.862Z,78.81
2023-04-29T21:31:09.543Z,79.64
2023-04-29T21:36:11.953Z,79.47
2023-04-29T21:41:37.357Z,79.66
2023-04-29T21:46:39.431Z,79.60
2023-04-29T21:51:41.195Z,80.47
2023-04-29T21:56:43.116Z,80.60
2023-04-29T22:01:44.913Z,81.06
2023-04-29T22:06:46.801Z,81.29
2023-04-29T22:11:48.560Z,81.11
2023-04-29T22:16:50.286Z,81.11
2023-04-29T22:21:51.919Z,80.60
2023-04-29T22:26:53.762Z,80.28
2023-04-29T22:31:56.139Z,80.31
2023-04-29T22:36:58.012Z,80.13
2023-04-29T22:41:59.767Z,80.19
2023-04-29T22:47:01.717Z,80.19
2023-04-29T22:52:03.859Z,80.30
2023-04-29T22:57:05.554Z,80.43
2023-04-29T23:02:07.410Z,80.59
2023-04-29T23:07:09.358Z,79.61
2023-04-29T23:12:11.056Z,80.19
2023-04-29T23:17:12.985Z,80.29
2023-04-29T23:22:16.897Z,80.10
2023-04-29T23:27:18.603Z,80.00
2023-04-29T23:32:20.675Z,80.18
2023-04-29T23:37:22.582Z,80.53
2023-04-29T23:42:24.523Z,80.57
2023-04-29T23:47:26.291Z,80.86
2023-04-29T23:52:28.042Z,81.31
2023-04-29T23:57:29.740Z,81.19
